Time;durP1;ratioP1;P1;durP2;ratioP2;P2;SDS_P1;SDS_P2;PMS_P1;PMS_P2;Temp;Humidity;BMP_temperature;BMP_pressure;BME280_temperature;BME280_humidity;BME280_pressure;Samples;Min_cycle;Max_cycle;Signal;HPM_P1;HPM_P2
2024/01/01 00:01:23;;;;;;;26.60;13.02;;;;;;;;;;5023082;28;20041;-77
2024/01/01 00:03:50;;;;;;;29.17;11.30;;;;;;;;;;5012785;28;20041;-79
2024/01/01 00:06:16;;;;;;;25.75;10.52;;;;;;;;;;5015217;28;20116;-78
2024/01/01 00:08:42;;;;;;;25.75;11.85;;;;;;;;;;5009522;28;20479;-78
2024/01/01 00:11:10;;;;;;;21.85;10.55;;;;;;;;;;5019863;28;20589;-78
2024/01/01 00:13:36;;;;;;;25.83;12.38;;;;;;;;;;5021006;28;20025;-79
2024/01/01 00:16:02;;;;;;;26.10;13.82;;;;;;;;;;5025571;28;20041;-78
2024/01/01 00:18:28;;;;;;;26.63;14.13;;;;;;;;;;5025758;28;20048;-78
2024/01/01 00:20:54;;;;;;;21.40;11.40;;;;;;;;;;5023383;28;20026;-78
2024/01/01 00:23:20;;;;;;;20.88;12.02;;;;;;;;;;5007248;28;20037;-78
2024/01/01 00:25:46;;;;;;;19.98;10.13;;;;;;;;;;5015871;28;20076;-78
2024/01/01 00:28:12;;;;;;;18.90;8.38;;;;;;;;;;5010607;28;20030;-78
2024/01/01 00:30:38;;;;;;;12.05;5.97;;;;;;;;;;5026340;28;20815;-78
2024/01/01 00:33:05;;;;;;;12.02;6.28;;;;;;;;;;5023020;28;20038;-76
2024/01/01 00:35:31;;;;;;;17.63;9.60;;;;;;;;;;5024088;28;20029;-78
2024/01/01 00:37:57;;;;;;;21.25;13.57;;;;;;;;;;5032859;28;20033;-77
2024/01/01 00:40:23;;;;;;;26.08;15.70;;;;;;;;;;5050794;28;20063;-78
2024/01/01 00:42:49;;;;;;;29.00;16.75;;;;;;;;;;5027062;28;20057;-78
2024/01/01 00:45:15;;;;;;;31.42;16.80;;;;;;;;;;5015158;28;20038;-78
2024/01/01 00:47:41;;;;;;;30.23;15.77;;;;;;;;;;5032387;28;20038;-78
2024/01/01 00:50:07;;;;;;;34.38;17.23;;;;;;;;;;5032406;28;20025;-78
2024/01/01 00:52:33;;;;;;;27.58;16.50;;;;;;;;;;5027592;28;20026;-78
2024/01/01 00:55:00;;;;;;;39.45;19.55;;;;;;;;;;5038369;28;20082;-77
2024/01/01 00:57:26;;;;;;;36.63;19.67;;;;;;;;;;5031693;28;20037;-78
2024/01/01 00:59:52;;;;;;;36.13;19.83;;;;;;;;;;5015864;28;20029;-78
2024/01/01 01:02:19;;;;;;;36.13;20.60;;;;;;;;;;5018767;28;20030;-78
2024/01/01 01:04:46;;;;;;;33.78;21.00;;;;;;;;;;5012661;28;20030;-79
2024/01/01 01:07:12;;;;;;;44.33;22.05;;;;;;;;;;5011416;28;20050;-78
2024/01/01 01:09:38;;;;;;;42.33;22.73;;;;;;;;;;5013524;28;20033;-79
2024/01/01 01:12:04;;;;;;;40.22;22.45;;;;;;;;;;5026291;28;20034;-78
2024/01/01 01:14:30;;;;;;;42.05;23.70;;;;;;;;;;5032250;28;20029;-78
2024/01/01 01:16:59;;;;;;;45.97;25.35;;;;;;;;;;5030725;28;20479;-78
2024/01/01 01:19:25;;;;;;;47.65;24.20;;;;;;;;;;5023273;28;20144;-78
2024/01/01 01:21:51;;;;;;;46.22;23.77;;;;;;;;;;5031431;28;20033;-77
2024/01/01 01:24:18;;;;;;;45.63;24.85;;;;;;;;;;5030296;28;20030;-78
2024/01/01 01:26:44;;;;;;;50.25;27.30;;;;;;;;;;5016054;28;20046;-78
2024/01/01 01:29:10;;;;;;;46.38;27.02;;;;;;;;;;5012491;28;20513;-78
2024/01/01 01:31:36;;;;;;;47.90;28.90;;;;;;;;;;5031902;28;20471;-77
2024/01/01 01:34:02;;;;;;;45.83;28.95;;;;;;;;;;5029240;28;20029;-78
2024/01/01 01:36:28;;;;;;;52.70;30.13;;;;;;;;;;5016163;28;20049;-78
2024/01/01 01:38:54;;;;;;;50.67;31.00;;;;;;;;;;5031275;28;20076;-78
2024/01/01 01:41:20;;;;;;;50.85;29.20;;;;;;;;;;5015070;28;20034;-78
2024/01/01 01:43:46;;;;;;;50.30;30.40;;;;;;;;;;5000415;28;20026;-77
2024/01/01 01:46:17;;;;;;;42.88;27.85;;;;;;;;;;5028284;28;20108;-77
2024/01/01 01:48:44;;;;;;;45.75;27.67;;;;;;;;;;4995855;28;20030;-77
2024/01/01 01:51:11;;;;;;;47.20;27.65;;;;;;;;;;5023369;28;20095;-77
2024/01/01 01:53:37;;;;;;;40.63;24.40;;;;;;;;;;5030742;28;20061;-78
2024/01/01 01:56:04;;;;;;;36.47;22.13;;;;;;;;;;5021513;28;20618;-78
2024/01/01 01:58:34;;;;;;;37.10;20.67;;;;;;;;;;5011884;28;20041;-75
2024/01/01 02:01:00;;;;;;;40.33;20.27;;;;;;;;;;5019932;28;20029;-78
2024/01/01 02:03:26;;;;;;;31.25;18.98;;;;;;;;;;5022679;28;20029;-77
2024/01/01 02:05:54;;;;;;;33.70;19.50;;;;;;;;;;5025576;28;20100;-78
2024/01/01 02:08:21;;;;;;;32.88;19.13;;;;;;;;;;5030969;28;20756;-78
2024/01/01 02:10:47;;;;;;;33.28;18.83;;;;;;;;;;5016447;28;20506;-77
2024/01/01 02:13:27;;;;;;;34.33;18.73;;;;;;;;;;5029851;28;20146;-76
2024/01/01 02:15:55;;;;;;;35.58;19.38;;;;;;;;;;5030009;28;20029;-78
2024/01/01 02:18:21;;;;;;;32.42;18.08;;;;;;;;;;5030575;28;20033;-79
2024/01/01 02:20:48;;;;;;;37.17;18.45;;;;;;;;;;5031027;28;20104;-78
2024/01/01 02:23:18;;;;;;;30.98;18.27;;;;;;;;;;5028561;28;20025;-78
2024/01/01 02:25:45;;;;;;;35.30;19.83;;;;;;;;;;5019410;28;20037;-77
2024/01/01 02:28:11;;;;;;;34.75;19.02;;;;;;;;;;5011221;28;20038;-78
2024/01/01 02:30:37;;;;;;;31.73;20.40;;;;;;;;;;5015434;28;20038;-78
2024/01/01 02:33:07;;;;;;;29.02;18.88;;;;;;;;;;5030925;28;20034;-77
2024/01/01 02:35:33;;;;;;;28.50;17.90;;;;;;;;;;5012964;28;20026;-77
2024/01/01 02:37:59;;;;;;;29.95;18.38;;;;;;;;;;5017485;28;20033;-78
2024/01/01 02:40:25;;;;;;;38.70;19.75;;;;;;;;;;5030690;28;20026;-78
2024/01/01 02:42:51;;;;;;;36.83;18.30;;;;;;;;;;5024461;28;20033;-77
2024/01/01 02:45:20;;;;;;;36.08;17.15;;;;;;;;;;5028848;28;20025;-77
2024/01/01 02:47:46;;;;;;;29.50;15.38;;;;;;;;;;5026731;28;20491;-78
2024/01/01 02:50:15;;;;;;;25.17;15.80;;;;;;;;;;5029236;28;20022;-77
2024/01/01 02:52:41;;;;;;;25.83;13.82;;;;;;;;;;5030003;28;20065;-77
2024/01/01 02:55:07;;;;;;;24.42;13.95;;;;;;;;;;5030554;28;20034;-77
2024/01/01 02:57:33;;;;;;;27.73;14.23;;;;;;;;;;5019493;28;20061;-77
2024/01/01 02:59:59;;;;;;;27.90;13.82;;;;;;;;;;5029180;28;20032;-77
2024/01/01 03:02:25;;;;;;;26.70;13.68;;;;;;;;;;5030426;28;20034;-77
2024/01/01 03:04:51;;;;;;;24.02;13.40;;;;;;;;;;4996071;28;20080;-78
2024/01/01 03:07:17;;;;;;;25.55;13.27;;;;;;;;;;5021971;28;20093;-78
2024/01/01 03:09:43;;;;;;;23.58;11.85;;;;;;;;;;5016653;28;20040;-77
2024/01/01 03:12:09;;;;;;;21.95;11.88;;;;;;;;;;5035943;28;20037;-78
2024/01/01 03:14:35;;;;;;;24.00;12.30;;;;;;;;;;5020336;28;20034;-78
2024/01/01 03:17:01;;;;;;;23.25;12.35;;;;;;;;;;5011363;28;20117;-78
2024/01/01 03:19:27;;;;;;;19.67;10.40;;;;;;;;;;5015634;28;20541;-78
2024/01/01 03:21:53;;;;;;;19.73;9.05;;;;;;;;;;5009811;28;20025;-77
2024/01/01 03:24:22;;;;;;;21.20;8.32;;;;;;;;;;5024941;28;20034;-78
2024/01/01 03:26:48;;;;;;;16.42;7.75;;;;;;;;;;5024998;28;20034;-78
2024/01/01 03:29:14;;;;;;;17.65;7.90;;;;;;;;;;5013303;28;20040;-78
2024/01/01 03:31:44;;;;;;;17.80;6.82;;;;;;;;;;5025182;28;20041;-78
2024/01/01 03:34:10;;;;;;;17.70;7.32;;;;;;;;;;5009384;28;20079;-78
2024/01/01 03:36:36;;;;;;;17.42;7.43;;;;;;;;;;5018342;28;20037;-78
2024/01/01 03:39:03;;;;;;;17.58;7.15;;;;;;;;;;5027515;28;20034;-78
2024/01/01 03:41:29;;;;;;;18.98;6.78;;;;;;;;;;5017850;28;20037;-78
2024/01/01 03:43:58;;;;;;;16.35;7.20;;;;;;;;;;5027002;28;20383;-78
2024/01/01 03:46:24;;;;;;;18.80;8.18;;;;;;;;;;5015924;28;20128;-78
2024/01/01 03:48:50;;;;;;;17.20;6.28;;;;;;;;;;5009537;28;20088;-78
2024/01/01 03:51:16;;;;;;;18.40;7.53;;;;;;;;;;5031010;28;20026;-78
2024/01/01 03:53:42;;;;;;;20.70;7.28;;;;;;;;;;5011397;28;20487;-78
2024/01/01 03:56:09;;;;;;;17.42;7.32;;;;;;;;;;5019974;28;20025;-77
2024/01/01 03:58:35;;;;;;;17.85;7.05;;;;;;;;;;5020916;28;20071;-78
2024/01/01 04:01:01;;;;;;;20.67;5.75;;;;;;;;;;5028779;28;20040;-77
2024/01/01 04:03:27;;;;;;;16.63;6.53;;;;;;;;;;5008817;28;20038;-78
2024/01/01 04:05:53;;;;;;;15.50;5.28;;;;;;;;;;5009005;28;20046;-79
2024/01/01 04:08:22;;;;;;;17.27;6.45;;;;;;;;;;5011084;28;20092;-78
2024/01/01 04:10:48;;;;;;;14.10;5.20;;;;;;;;;;5018682;28;20041;-78
2024/01/01 04:13:14;;;;;;;14.05;5.47;;;;;;;;;;5016791;28;20030;-78
2024/01/01 04:15:40;;;;;;;16.55;4.88;;;;;;;;;;5008722;28;20037;-79
2024/01/01 04:18:06;;;;;;;15.02;4.30;;;;;;;;;;5016062;28;20030;-79
2024/01/01 04:20:32;;;;;;;12.60;4.32;;;;;;;;;;5024277;28;20525;-79
2024/01/01 04:22:58;;;;;;;10.57;4.00;;;;;;;;;;5032201;28;20415;-78
2024/01/01 04:25:24;;;;;;;17.77;4.18;;;;;;;;;;5016102;28;20509;-78
2024/01/01 04:27:50;;;;;;;13.30;4.00;;;;;;;;;;5015275;28;20103;-78
2024/01/01 04:30:16;;;;;;;11.35;3.63;;;;;;;;;;5012059;28;20022;-77
2024/01/01 04:32:42;;;;;;;8.35;3.30;;;;;;;;;;5022990;28;20048;-78
2024/01/01 04:35:08;;;;;;;13.43;3.17;;;;;;;;;;5029118;28;20033;-78
2024/01/01 04:37:34;;;;;;;12.82;3.00;;;;;;;;;;5015367;28;20554;-77
2024/01/01 04:40:00;;;;;;;9.93;3.00;;;;;;;;;;5008268;28;20379;-78
2024/01/01 04:42:26;;;;;;;8.20;3.25;;;;;;;;;;5016698;28;20049;-78
2024/01/01 04:44:52;;;;;;;15.15;4.38;;;;;;;;;;5019233;28;20109;-78
2024/01/01 04:47:19;;;;;;;10.40;3.28;;;;;;;;;;5017171;28;20040;-78
2024/01/01 04:49:45;;;;;;;13.80;3.58;;;;;;;;;;5009191;28;20088;-77
2024/01/01 04:52:11;;;;;;;8.77;2.80;;;;;;;;;;5013151;28;20037;-78
2024/01/01 04:54:37;;;;;;;16.23;3.83;;;;;;;;;;5025659;28;20041;-77
2024/01/01 04:57:03;;;;;;;11.48;2.92;;;;;;;;;;5017174;28;20033;-77
2024/01/01 04:59:29;;;;;;;11.15;3.05;;;;;;;;;;5011134;28;20025;-77
2024/01/01 05:01:55;;;;;;;8.45;2.80;;;;;;;;;;5022766;28;20112;-77
2024/01/01 05:04:21;;;;;;;15.57;3.63;;;;;;;;;;5014968;28;20026;-78
2024/01/01 05:06:47;;;;;;;12.07;2.83;;;;;;;;;;5013191;28;20041;-78
2024/01/01 05:09:13;;;;;;;16.38;4.20;;;;;;;;;;5020110;28;20532;-78
2024/01/01 05:11:40;;;;;;;12.15;3.30;;;;;;;;;;5022477;28;20644;-77
2024/01/01 05:14:07;;;;;;;11.48;3.05;;;;;;;;;;5016259;28;20113;-77
2024/01/01 05:16:34;;;;;;;15.98;4.43;;;;;;;;;;5031317;28;20057;-78
2024/01/01 05:19:03;;;;;;;10.93;3.67;;;;;;;;;;5022303;28;20394;-78
2024/01/01 05:21:29;;;;;;;9.38;2.60;;;;;;;;;;5030643;28;20026;-78
2024/01/01 05:23:55;;;;;;;11.25;2.83;;;;;;;;;;5023013;28;20037;-78
2024/01/01 05:26:21;;;;;;;13.95;3.30;;;;;;;;;;5022776;28;20371;-78
2024/01/01 05:28:48;;;;;;;14.10;3.08;;;;;;;;;;5025509;28;20036;-79
2024/01/01 05:31:19;;;;;;;11.32;2.80;;;;;;;;;;5020215;28;20045;-78
2024/01/01 05:33:45;;;;;;;12.43;3.50;;;;;;;;;;5021741;28;20108;-78
2024/01/01 05:36:13;;;;;;;8.43;2.47;;;;;;;;;;5012042;28;20050;-78
2024/01/01 05:38:39;;;;;;;9.10;2.13;;;;;;;;;;5017943;28;20503;-78
2024/01/01 05:41:05;;;;;;;10.77;2.33;;;;;;;;;;5013567;28;20040;-79
2024/01/01 05:43:33;;;;;;;16.05;3.50;;;;;;;;;;5023397;28;20033;-78
2024/01/01 05:45:59;;;;;;;7.40;1.83;;;;;;;;;;5023319;28;20033;-78
2024/01/01 05:48:25;;;;;;;11.43;2.15;;;;;;;;;;5028737;28;20111;-78
2024/01/01 05:50:51;;;;;;;10.68;2.95;;;;;;;;;;5013170;28;20399;-79
2024/01/01 05:53:17;;;;;;;12.52;2.65;;;;;;;;;;5013410;28;20026;-78
2024/01/01 05:55:43;;;;;;;13.23;2.40;;;;;;;;;;5021278;28;20033;-79
2024/01/01 05:58:09;;;;;;;10.27;2.85;;;;;;;;;;5027841;28;20032;-78
2024/01/01 06:00:37;;;;;;;10.95;2.90;;;;;;;;;;5017236;28;20075;-78
2024/01/01 06:03:06;;;;;;;10.18;2.25;;;;;;;;;;5031550;28;20083;-78
2024/01/01 06:05:35;;;;;;;9.63;2.13;;;;;;;;;;5024172;28;20479;-78
2024/01/01 06:08:05;;;;;;;13.88;2.80;;;;;;;;;;5028134;28;20398;-78
2024/01/01 06:10:31;;;;;;;9.95;2.40;;;;;;;;;;5027088;28;20041;-78
2024/01/01 06:12:57;;;;;;;11.35;1.98;;;;;;;;;;5013559;28;20029;-78
2024/01/01 06:15:24;;;;;;;9.88;2.25;;;;;;;;;;5011713;28;20049;-77
2024/01/01 06:17:50;;;;;;;14.80;3.53;;;;;;;;;;5027912;28;20021;-78
2024/01/01 06:20:16;;;;;;;18.55;3.60;;;;;;;;;;5020760;28;20189;-76
2024/01/01 06:22:45;;;;;;;15.98;4.00;;;;;;;;;;5011162;28;20084;-76
2024/01/01 06:25:11;;;;;;;16.15;4.55;;;;;;;;;;5019362;28;20037;-76
2024/01/01 06:27:38;;;;;;;21.05;3.83;;;;;;;;;;5010802;28;20042;-76
2024/01/01 06:30:05;;;;;;;22.70;3.85;;;;;;;;;;5024815;28;20531;-76
2024/01/01 06:32:31;;;;;;;19.63;3.00;;;;;;;;;;5020484;28;20029;-76
2024/01/01 06:34:57;;;;;;;23.63;4.57;;;;;;;;;;5013464;28;20510;-76
2024/01/01 06:37:23;;;;;;;13.63;2.90;;;;;;;;;;5021734;28;20029;-76
2024/01/01 06:39:49;;;;;;;16.33;3.13;;;;;;;;;;5010405;28;20080;-76
2024/01/01 06:42:18;;;;;;;22.13;3.78;;;;;;;;;;5024072;28;20032;-76
2024/01/01 06:44:44;;;;;;;18.13;3.45;;;;;;;;;;5044002;28;20025;-76
2024/01/01 06:47:10;;;;;;;12.15;2.90;;;;;;;;;;5023924;28;20045;-76
2024/01/01 06:49:36;;;;;;;19.60;3.35;;;;;;;;;;5029514;28;20025;-76
2024/01/01 06:52:03;;;;;;;14.95;3.05;;;;;;;;;;5019557;28;20029;-76
2024/01/01 06:54:29;;;;;;;26.25;4.22;;;;;;;;;;5015951;28;20037;-75
2024/01/01 06:56:55;;;;;;;22.33;4.03;;;;;;;;;;5014352;28;20065;-76
2024/01/01 06:59:26;;;;;;;22.20;3.38;;;;;;;;;;5015454;28;20026;-76
2024/01/01 07:01:52;;;;;;;22.20;4.50;;;;;;;;;;5028977;28;20034;-76
2024/01/01 07:04:18;;;;;;;21.85;4.15;;;;;;;;;;5025999;28;20100;-76
2024/01/01 07:06:45;;;;;;;29.30;4.30;;;;;;;;;;5024115;28;20680;-76
2024/01/01 07:09:11;;;;;;;22.25;5.25;;;;;;;;;;5015885;28;20303;-76
2024/01/01 07:11:37;;;;;;;29.83;4.90;;;;;;;;;;5026260;28;20121;-75
2024/01/01 07:14:03;;;;;;;13.13;2.53;;;;;;;;;;5008690;28;20431;-75
2024/01/01 07:16:29;;;;;;;6.20;1.30;;;;;;;;;;5035417;28;20470;-75
2024/01/01 07:18:56;;;;;;;4.57;0.90;;;;;;;;;;5009662;28;20121;-75
2024/01/01 07:21:22;;;;;;;2.95;0.70;;;;;;;;;;5017306;28;20045;-75
2024/01/01 07:23:48;;;;;;;4.80;0.90;;;;;;;;;;5015308;28;20027;-75
2024/01/01 07:26:15;;;;;;;5.28;1.17;;;;;;;;;;5026014;28;20105;-75
2024/01/01 07:28:42;;;;;;;4.75;0.75;;;;;;;;;;5012453;28;20029;-75
2024/01/01 07:31:08;;;;;;;3.28;0.75;;;;;;;;;;5039983;28;20379;-76
2024/01/01 07:33:35;;;;;;;9.40;2.13;;;;;;;;;;5020960;28;20034;-78
2024/01/01 07:36:01;;;;;;;7.32;2.03;;;;;;;;;;5028544;28;20053;-78
2024/01/01 07:38:27;;;;;;;7.72;2.22;;;;;;;;;;5017110;28;20049;-77
2024/01/01 07:40:53;;;;;;;10.32;1.13;;;;;;;;;;5023149;28;20268;-77
2024/01/01 07:43:21;;;;;;;5.78;0.98;;;;;;;;;;5020393;28;20061;-77
2024/01/01 07:45:47;;;;;;;4.88;0.70;;;;;;;;;;5017100;28;20095;-78
2024/01/01 07:48:13;;;;;;;5.60;1.20;;;;;;;;;;5021673;28;20410;-77
2024/01/01 07:50:39;;;;;;;6.05;1.27;;;;;;;;;;5008445;28;20491;-77
2024/01/01 07:53:05;;;;;;;8.98;1.83;;;;;;;;;;5016047;28;20079;-77
2024/01/01 07:55:31;;;;;;;6.95;1.50;;;;;;;;;;5023414;28;20035;-77
2024/01/01 07:57:59;;;;;;;10.15;1.65;;;;;;;;;;5014419;28;20030;-77
2024/01/01 08:00:25;;;;;;;9.20;2.08;;;;;;;;;;5022308;28;20026;-77
2024/01/01 08:02:52;;;;;;;4.40;1.10;;;;;;;;;;5009046;28;20041;-77
2024/01/01 08:05:18;;;;;;;10.27;2.50;;;;;;;;;;5010867;28;20043;-78
2024/01/01 08:07:47;;;;;;;14.98;1.63;;;;;;;;;;5021836;28;20049;-78
2024/01/01 08:10:15;;;;;;;6.40;1.23;;;;;;;;;;5022290;28;20033;-78
2024/01/01 08:12:43;;;;;;;14.23;1.95;;;;;;;;;;5024367;28;20053;-78
2024/01/01 08:15:09;;;;;;;10.60;1.85;;;;;;;;;;5012108;28;20029;-76
2024/01/01 08:17:35;;;;;;;11.40;1.73;;;;;;;;;;5018593;28;20487;-78
2024/01/01 08:20:01;;;;;;;11.95;2.05;;;;;;;;;;5012140;28;20475;-77
2024/01/01 08:22:27;;;;;;;9.90;1.90;;;;;;;;;;5024730;28;20471;-77
2024/01/01 08:24:53;;;;;;;14.52;3.80;;;;;;;;;;5014805;28;20037;-77
2024/01/01 08:27:20;;;;;;;14.57;3.20;;;;;;;;;;5026427;28;20037;-77
2024/01/01 08:29:46;;;;;;;16.13;3.33;;;;;;;;;;5011073;28;20041;-77
2024/01/01 08:32:12;;;;;;;21.60;2.80;;;;;;;;;;5018278;28;20048;-77
2024/01/01 08:34:38;;;;;;;15.32;3.00;;;;;;;;;;5014745;28;20064;-81
2024/01/01 08:37:04;;;;;;;21.80;3.97;;;;;;;;;;5014388;28;20434;-78
2024/01/01 08:39:30;;;;;;;16.83;5.32;;;;;;;;;;5035679;28;20029;-79
2024/01/01 08:41:56;;;;;;;17.80;3.97;;;;;;;;;;5012328;28;20467;-76
2024/01/01 08:44:22;;;;;;;21.55;6.95;;;;;;;;;;5008495;28;20391;-79
2024/01/01 08:46:48;;;;;;;13.45;2.85;;;;;;;;;;5029728;28;20029;-79
2024/01/01 08:49:17;;;;;;;19.48;3.42;;;;;;;;;;5021623;28;20025;-79
2024/01/01 08:51:43;;;;;;;23.42;3.47;;;;;;;;;;5030588;28;20029;-79
2024/01/01 08:54:09;;;;;;;12.88;2.88;;;;;;;;;;5032893;28;20044;-79
2024/01/01 08:56:35;;;;;;;13.63;2.38;;;;;;;;;;5016438;28;20083;-79
2024/01/01 08:59:03;;;;;;;17.63;2.60;;;;;;;;;;5019822;28;20034;-79
2024/01/01 09:01:29;;;;;;;21.67;3.33;;;;;;;;;;5016400;28;20041;-79
2024/01/01 09:03:56;;;;;;;17.98;2.75;;;;;;;;;;5015625;28;20495;-79
2024/01/01 09:06:22;;;;;;;19.15;2.97;;;;;;;;;;5031808;28;20148;-81
2024/01/01 09:08:48;;;;;;;19.42;3.60;;;;;;;;;;5031641;28;20029;-80
2024/01/01 09:11:14;;;;;;;17.70;3.38;;;;;;;;;;5016813;28;20475;-80
2024/01/01 09:13:40;;;;;;;14.90;2.45;;;;;;;;;;5024394;28;20116;-80
2024/01/01 09:16:06;;;;;;;23.15;4.05;;;;;;;;;;5020894;28;20060;-80
2024/01/01 09:18:33;;;;;;;19.10;2.75;;;;;;;;;;5029192;28;20034;-80
2024/01/01 09:20:59;;;;;;;19.20;3.90;;;;;;;;;;5032264;28;20093;-83
2024/01/01 09:23:26;;;;;;;30.83;6.82;;;;;;;;;;5025031;28;20319;-77
2024/01/01 09:25:54;;;;;;;19.55;2.40;;;;;;;;;;5032856;28;20048;-78
2024/01/01 09:28:20;;;;;;;17.73;2.88;;;;;;;;;;5033654;28;20560;-84
2024/01/01 09:30:46;;;;;;;18.67;2.80;;;;;;;;;;5027681;28;20033;-78
2024/01/01 09:33:12;;;;;;;10.02;2.13;;;;;;;;;;5011856;28;20030;-79
2024/01/01 09:35:38;;;;;;;21.77;2.67;;;;;;;;;;5012391;28;20057;-78
2024/01/01 09:38:04;;;;;;;15.35;2.50;;;;;;;;;;5017710;28;20064;-79
2024/01/01 09:40:30;;;;;;;22.02;2.97;;;;;;;;;;5014424;28;20034;-79
2024/01/01 09:42:57;;;;;;;15.43;3.58;;;;;;;;;;5029809;28;20072;-77
2024/01/01 09:45:23;;;;;;;15.02;2.72;;;;;;;;;;5031397;28;20335;-82
2024/01/01 09:47:49;;;;;;;14.02;2.92;;;;;;;;;;5029438;28;20069;-79
2024/01/01 09:50:15;;;;;;;11.23;1.92;;;;;;;;;;5031867;28;20060;-81
2024/01/01 09:52:41;;;;;;;10.13;1.75;;;;;;;;;;5032154;28;20040;-81
2024/01/01 09:55:08;;;;;;;12.35;1.88;;;;;;;;;;5036036;28;20080;-79
2024/01/01 09:57:34;;;;;;;14.02;2.67;;;;;;;;;;5023232;28;20474;-79
2024/01/01 10:00:05;;;;;;;15.13;2.60;;;;;;;;;;5027789;28;20025;-79
2024/01/01 10:02:33;;;;;;;19.52;3.05;;;;;;;;;;5031648;28;20340;-77
2024/01/01 10:05:15;;;;;;;22.77;3.28;;;;;;;;;;5008431;28;20033;-78
2024/01/01 10:07:41;;;;;;;14.87;2.77;;;;;;;;;;5029650;28;20509;-80
2024/01/01 10:10:07;;;;;;;17.83;2.85;;;;;;;;;;5022968;28;20029;-79
2024/01/01 10:12:34;;;;;;;15.27;2.55;;;;;;;;;;5025395;28;20040;-78
2024/01/01 10:15:00;;;;;;;18.20;2.78;;;;;;;;;;5026634;28;20549;-79
2024/01/01 10:17:26;;;;;;;12.68;2.00;;;;;;;;;;5029997;28;20048;-78
2024/01/01 10:19:52;;;;;;;13.07;2.42;;;;;;;;;;5013975;28;20447;-78
2024/01/01 10:22:19;;;;;;;16.63;2.83;;;;;;;;;;5016445;28;20049;-80
2024/01/01 10:24:52;;;;;;;9.02;1.98;;;;;;;;;;5024120;28;20374;-79
2024/01/01 10:27:18;;;;;;;;;;;;;;;;;;5030179;28;20522;-76
2024/01/01 10:29:46;;;;;;;16.00;2.60;;;;;;;;;;5014704;28;20016;-79
2024/01/01 10:32:15;;;;;;;15.48;4.65;;;;;;;;;;5025099;28;20168;-76
2024/01/01 10:34:41;;;;;;;16.95;2.88;;;;;;;;;;5013208;28;20022;-79
2024/01/01 10:37:08;;;;;;;19.80;3.38;;;;;;;;;;5012167;28;20081;-78
2024/01/01 10:39:35;;;;;;;23.10;3.35;;;;;;;;;;5039932;28;20503;-78
2024/01/01 10:42:02;;;;;;;23.58;5.20;;;;;;;;;;5010799;28;20025;-78
2024/01/01 10:44:29;;;;;;;16.48;2.33;;;;;;;;;;5015095;28;20030;-78
2024/01/01 10:47:00;;;;;;;17.02;2.95;;;;;;;;;;5025327;28;20119;-78
2024/01/01 10:49:30;;;;;;;19.23;2.92;;;;;;;;;;5024415;28;20025;-76
2024/01/01 10:52:01;;;;;;;14.00;3.33;;;;;;;;;;5015747;28;20030;-80
2024/01/01 10:54:43;;;;;;;18.97;3.23;;;;;;;;;;5014633;28;20067;-79
2024/01/01 10:57:29;;;;;;;16.63;3.80;;;;;;;;;;5029245;28;20292;-76
2024/01/01 11:00:15;;;;;;;16.17;2.53;;;;;;;;;;5020369;28;20025;-77
2024/01/01 11:02:42;;;;;;;19.10;2.22;;;;;;;;;;5000509;28;20392;-77
2024/01/01 11:05:08;;;;;;;23.65;3.53;;;;;;;;;;5018477;28;20095;-78
2024/01/01 11:08:10;;;;;;;15.15;2.38;;;;;;;;;;5021812;28;20046;-81
2024/01/01 11:10:37;;;;;;;11.93;2.60;;;;;;;;;;4953803;28;20028;-79
2024/01/01 11:13:04;;;;;;;18.30;1.98;;;;;;;;;;5011200;28;20510;-79
2024/01/01 11:15:44;;;;;;;13.75;3.67;;;;;;;;;;5018516;28;20029;-79
2024/01/01 11:18:17;;;;;;;28.25;4.60;;;;;;;;;;5029718;28;20072;-78
2024/01/01 11:20:50;;;;;;;19.90;4.90;;;;;;;;;;5022402;28;20037;-78
2024/01/01 11:23:35;;;;;;;11.88;4.53;;;;;;;;;;5019709;28;20491;-77
2024/01/01 11:26:01;;;;;;;18.05;4.45;;;;;;;;;;5022968;28;20029;-80
2024/01/01 11:28:39;;;;;;;23.45;5.05;;;;;;;;;;5024102;28;20269;-81
2024/01/01 11:31:05;;;;;;;17.55;3.92;;;;;;;;;;5006723;28;20373;-79
2024/01/01 11:33:31;;;;;;;15.13;3.38;;;;;;;;;;5014426;28;20446;-79
2024/01/01 11:36:06;;;;;;;16.73;4.38;;;;;;;;;;5019629;28;20030;-78
2024/01/01 11:38:33;;;;;;;13.10;3.17;;;;;;;;;;5028435;28;20044;-79
2024/01/01 11:40:59;;;;;;;18.52;2.45;;;;;;;;;;5018431;28;20029;-79
2024/01/01 11:43:25;;;;;;;18.20;2.60;;;;;;;;;;5014701;28;20053;-79
2024/01/01 11:45:54;;;;;;;14.70;1.92;;;;;;;;;;5017152;28;20029;-79
2024/01/01 11:48:20;;;;;;;13.60;2.42;;;;;;;;;;5010652;28;20037;-78
2024/01/01 11:50:48;;;;;;;12.35;1.88;;;;;;;;;;5030598;28;20025;-76
2024/01/01 11:53:21;;;;;;;16.38;3.95;;;;;;;;;;5010318;28;20084;-77
2024/01/01 11:55:47;;;;;;;10.18;2.38;;;;;;;;;;5034294;28;20489;-76
2024/01/01 11:58:14;;;;;;;17.88;3.08;;;;;;;;;;5011175;28;20038;-76
2024/01/01 12:00:42;;;;;;;14.48;2.22;;;;;;;;;;5028119;28;20021;-79
2024/01/01 12:03:08;;;;;;;14.60;2.33;;;;;;;;;;5021801;28;20083;-78
2024/01/01 12:05:34;;;;;;;16.13;2.28;;;;;;;;;;5015816;28;20080;-78
2024/01/01 12:08:11;;;;;;;14.40;1.95;;;;;;;;;;5027737;28;20471;-78
2024/01/01 12:10:37;;;;;;;10.40;2.33;;;;;;;;;;5011800;28;20111;-77
2024/01/01 12:13:03;;;;;;;12.57;1.88;;;;;;;;;;5015431;28;20054;-78
2024/01/01 12:15:32;;;;;;;11.27;1.77;;;;;;;;;;5020258;28;20065;-77
2024/01/01 12:18:01;;;;;;;17.05;2.22;;;;;;;;;;5024646;28;20061;-76
2024/01/01 12:20:27;;;;;;;16.73;3.28;;;;;;;;;;5026534;28;20040;-79
2024/01/01 12:22:55;;;;;;;12.60;2.35;;;;;;;;;;5023061;28;20026;-78
2024/01/01 12:25:23;;;;;;;11.73;2.00;;;;;;;;;;5022795;28;20497;-79
2024/01/01 12:28:02;;;;;;;11.48;2.38;;;;;;;;;;5023784;28;20129;-77
2024/01/01 12:30:29;;;;;;;13.82;3.00;;;;;;;;;;5027626;28;20394;-77
2024/01/01 12:32:55;;;;;;;20.30;3.55;;;;;;;;;;5025005;28;20034;-78
2024/01/01 12:35:22;;;;;;;10.75;2.05;;;;;;;;;;5019350;28;20061;-79
2024/01/01 12:37:48;;;;;;;10.70;2.53;;;;;;;;;;5020139;28;20048;-79
2024/01/01 12:40:17;;;;;;;13.80;3.92;;;;;;;;;;5032170;28;20036;-78
2024/01/01 12:42:44;;;;;;;19.58;4.82;;;;;;;;;;5023772;28;20036;-79
2024/01/01 12:45:12;;;;;;;13.25;2.58;;;;;;;;;;5022970;28;20364;-78
2024/01/01 12:47:38;;;;;;;16.15;3.15;;;;;;;;;;5012942;28;20148;-77
2024/01/01 12:50:04;;;;;;;20.15;4.40;;;;;;;;;;5045640;28;20037;-77
2024/01/01 12:52:30;;;;;;;16.42;3.53;;;;;;;;;;5030383;28;20038;-77
2024/01/01 12:54:56;;;;;;;13.30;2.78;;;;;;;;;;5025002;28;20041;-78
2024/01/01 12:57:22;;;;;;;9.43;1.58;;;;;;;;;;5032463;28;20025;-77
2024/01/01 12:59:48;;;;;;;21.83;2.90;;;;;;;;;;5026145;28;20661;-78
2024/01/01 13:02:15;;;;;;;14.57;3.05;;;;;;;;;;5027315;28;20040;-78
2024/01/01 13:04:41;;;;;;;15.50;3.35;;;;;;;;;;5023071;28;20029;-77
2024/01/01 13:07:07;;;;;;;12.20;2.75;;;;;;;;;;5021942;28;20250;-77
2024/01/01 13:09:33;;;;;;;13.88;3.85;;;;;;;;;;5032089;28;20518;-77
2024/01/01 13:11:59;;;;;;;16.27;3.00;;;;;;;;;;5031337;28;20155;-77
2024/01/01 13:14:25;;;;;;;15.18;2.95;;;;;;;;;;5017389;28;20083;-77
2024/01/01 13:16:51;;;;;;;20.95;3.20;;;;;;;;;;5024295;28;20037;-77
2024/01/01 13:19:17;;;;;;;14.85;2.65;;;;;;;;;;5021978;28;20041;-77
2024/01/01 13:21:43;;;;;;;17.52;2.60;;;;;;;;;;5029479;28;20068;-77
2024/01/01 13:24:09;;;;;;;14.82;2.83;;;;;;;;;;5021512;28;20483;-77
2024/01/01 13:26:35;;;;;;;17.95;3.13;;;;;;;;;;5033118;28;20025;-77
2024/01/01 13:29:02;;;;;;;21.05;4.70;;;;;;;;;;5048349;28;20474;-77
2024/01/01 13:31:28;;;;;;;23.17;4.82;;;;;;;;;;5030937;28;20061;-77
2024/01/01 13:33:54;;;;;;;11.43;3.35;;;;;;;;;;5031881;28;20083;-77
2024/01/01 13:36:22;;;;;;;12.95;3.67;;;;;;;;;;5024795;28;20096;-77
2024/01/01 13:38:48;;;;;;;13.68;2.45;;;;;;;;;;5025410;28;20108;-77
2024/01/01 13:41:15;;;;;;;16.63;2.80;;;;;;;;;;5012062;28;20120;-77
2024/01/01 13:43:42;;;;;;;14.13;2.30;;;;;;;;;;5011878;28;20029;-77
2024/01/01 13:46:08;;;;;;;11.68;2.58;;;;;;;;;;5014571;28;20124;-77
2024/01/01 13:48:34;;;;;;;14.63;2.33;;;;;;;;;;5029967;28;20435;-77
2024/01/01 13:51:00;;;;;;;8.68;1.73;;;;;;;;;;5027734;28;20375;-77
2024/01/01 13:53:26;;;;;;;14.48;2.33;;;;;;;;;;5026488;28;20104;-77
2024/01/01 13:55:54;;;;;;;14.82;3.22;;;;;;;;;;5023383;28;20088;-77
2024/01/01 13:58:20;;;;;;;14.98;2.05;;;;;;;;;;5020112;28;20041;-77
2024/01/01 14:00:47;;;;;;;17.90;2.17;;;;;;;;;;5028817;28;20057;-77
2024/01/01 14:03:18;;;;;;;12.25;2.63;;;;;;;;;;5017423;28;20490;-77
2024/01/01 14:05:47;;;;;;;10.18;2.50;;;;;;;;;;5031101;28;20049;-77
2024/01/01 14:08:16;;;;;;;14.80;2.20;;;;;;;;;;5030300;28;20029;-77
2024/01/01 14:10:42;;;;;;;14.10;2.13;;;;;;;;;;5029562;28;20036;-77
2024/01/01 14:13:08;;;;;;;12.38;2.47;;;;;;;;;;5012691;28;20048;-77
2024/01/01 14:15:38;;;;;;;16.02;3.20;;;;;;;;;;5030963;28;20040;-77
2024/01/01 14:18:04;;;;;;;13.95;2.60;;;;;;;;;;5017682;28;20033;-76
2024/01/01 14:20:31;;;;;;;8.35;1.73;;;;;;;;;;5017770;28;20051;-77
2024/01/01 14:22:57;;;;;;;16.30;2.45;;;;;;;;;;5020307;28;20033;-78
2024/01/01 14:25:23;;;;;;;19.52;3.33;;;;;;;;;;5037268;28;20080;-77
2024/01/01 14:27:49;;;;;;;15.57;2.85;;;;;;;;;;5026296;28;20029;-77